sensor_id;sensor_type;location;lat;lon;timestamp;temperature;humidity
71128;SHT30;59249;59.736;30.568;2023-02-05T00:00:24;-1.59;78.28
71128;SHT30;59249;59.736;30.568;2023-02-05T00:02:53;-1.68;78.26
71128;SHT30;59249;59.736;30.568;2023-02-05T00:05:23;-1.62;78.18
71128;SHT30;59249;59.736;30.568;2023-02-05T00:07:51;-1.67;77.99
71128;SHT30;59249;59.736;30.568;2023-02-05T00:10:20;-1.81;78.02
71128;SHT30;59249;59.736;30.568;2023-02-05T00:12:49;-1.71;77.78
71128;SHT30;59249;59.736;30.568;2023-02-05T00:15:17;-1.74;77.60
71128;SHT30;59249;59.736;30.568;2023-02-05T00:17:47;-1.51;76.48
71128;SHT30;59249;59.736;30.568;2023-02-05T00:20:17;-1.64;76.44
71128;SHT30;59249;59.736;30.568;2023-02-05T00:22:45;-1.55;76.08
71128;SHT30;59249;59.736;30.568;2023-02-05T00:25:14;-1.50;75.52
71128;SHT30;59249;59.736;30.568;2023-02-05T00:27:43;-1.57;75.81
71128;SHT30;59249;59.736;30.568;2023-02-05T00:30:13;-1.66;75.85
71128;SHT30;59249;59.736;30.568;2023-02-05T00:32:42;-1.66;75.95
71128;SHT30;59249;59.736;30.568;2023-02-05T00:35:12;-1.67;76.35
71128;SHT30;59249;59.736;30.568;2023-02-05T00:37:41;-1.68;76.10
71128;SHT30;59249;59.736;30.568;2023-02-05T00:40:10;-1.69;75.87
71128;SHT30;59249;59.736;30.568;2023-02-05T00:42:41;-1.66;75.72
71128;SHT30;59249;59.736;30.568;2023-02-05T00:45:09;-1.63;75.20
71128;SHT30;59249;59.736;30.568;2023-02-05T00:47:38;-1.58;75.40
71128;SHT30;59249;59.736;30.568;2023-02-05T00:50:08;-1.68;75.68
71128;SHT30;59249;59.736;30.568;2023-02-05T00:52:38;-1.71;76.38
71128;SHT30;59249;59.736;30.568;2023-02-05T00:55:07;-1.71;77.25
71128;SHT30;59249;59.736;30.568;2023-02-05T00:57:35;-1.70;77.75
71128;SHT30;59249;59.736;30.568;2023-02-05T01:00:05;-1.77;78.13
71128;SHT30;59249;59.736;30.568;2023-02-05T01:02:35;-1.97;78.08
71128;SHT30;59249;59.736;30.568;2023-02-05T01:05:04;-1.97;78.40
71128;SHT30;59249;59.736;30.568;2023-02-05T01:07:33;-1.94;78.54
71128;SHT30;59249;59.736;30.568;2023-02-05T01:10:04;-1.90;78.44
71128;SHT30;59249;59.736;30.568;2023-02-05T01:12:33;-1.83;78.39
71128;SHT30;59249;59.736;30.568;2023-02-05T01:15:05;-1.90;78.26
71128;SHT30;59249;59.736;30.568;2023-02-05T01:17:34;-2.05;77.86
71128;SHT30;59249;59.736;30.568;2023-02-05T01:20:04;-2.07;77.66
71128;SHT30;59249;59.736;30.568;2023-02-05T01:22:33;-2.15;77.57
71128;SHT30;59249;59.736;30.568;2023-02-05T01:25:04;-2.14;77.57
71128;SHT30;59249;59.736;30.568;2023-02-05T01:27:34;-2.19;77.29
71128;SHT30;59249;59.736;30.568;2023-02-05T01:30:04;-2.08;77.60
71128;SHT30;59249;59.736;30.568;2023-02-05T01:32:34;-2.14;77.57
71128;SHT30;59249;59.736;30.568;2023-02-05T01:35:03;-2.22;77.63
71128;SHT30;59249;59.736;30.568;2023-02-05T01:37:32;-2.24;77.62
71128;SHT30;59249;59.736;30.568;2023-02-05T01:40:00;-2.15;77.38
71128;SHT30;59249;59.736;30.568;2023-02-05T01:42:32;-2.09;76.70
71128;SHT30;59249;59.736;30.568;2023-02-05T01:48:46;-2.06;76.85
71128;SHT30;59249;59.736;30.568;2023-02-05T01:51:16;-2.08;77.23
71128;SHT30;59249;59.736;30.568;2023-02-05T01:53:48;-2.19;78.24
71128;SHT30;59249;59.736;30.568;2023-02-05T01:56:21;-2.30;78.51
71128;SHT30;59249;59.736;30.568;2023-02-05T01:58:59;-2.33;78.76
71128;SHT30;59249;59.736;30.568;2023-02-05T02:01:36;-2.50;78.82
71128;SHT30;59249;59.736;30.568;2023-02-05T02:04:05;-2.76;79.06
71128;SHT30;59249;59.736;30.568;2023-02-05T02:06:36;-2.66;78.93
71128;SHT30;59249;59.736;30.568;2023-02-05T02:09:06;-2.62;79.01
71128;SHT30;59249;59.736;30.568;2023-02-05T02:11:40;-2.62;78.92
71128;SHT30;59249;59.736;30.568;2023-02-05T02:14:12;-2.87;79.03
71128;SHT30;59249;59.736;30.568;2023-02-05T02:16:42;-2.73;79.06
71128;SHT30;59249;59.736;30.568;2023-02-05T02:19:20;-2.75;78.71
71128;SHT30;59249;59.736;30.568;2023-02-05T02:22:34;-2.80;78.71
71128;SHT30;59249;59.736;30.568;2023-02-05T02:25:55;-2.87;77.91
71128;SHT30;59249;59.736;30.568;2023-02-05T02:28:37;-2.79;77.98
71128;SHT30;59249;59.736;30.568;2023-02-05T02:31:12;-2.94;77.38
71128;SHT30;59249;59.736;30.568;2023-02-05T02:33:47;-3.01;77.24
71128;SHT30;59249;59.736;30.568;2023-02-05T02:36:28;-3.00;76.75
71128;SHT30;59249;59.736;30.568;2023-02-05T02:39:07;-2.95;76.88
71128;SHT30;59249;59.736;30.568;2023-02-05T02:41:44;-3.06;77.10
71128;SHT30;59249;59.736;30.568;2023-02-05T02:44:26;-3.02;77.06
71128;SHT30;59249;59.736;30.568;2023-02-05T02:47:02;-3.15;76.95
71128;SHT30;59249;59.736;30.568;2023-02-05T02:49:37;-3.01;76.86
71128;SHT30;59249;59.736;30.568;2023-02-05T02:52:12;-2.95;76.80
71128;SHT30;59249;59.736;30.568;2023-02-05T02:54:47;-3.05;77.14
71128;SHT30;59249;59.736;30.568;2023-02-05T02:57:23;-3.17;77.29
71128;SHT30;59249;59.736;30.568;2023-02-05T03:00:00;-3.23;77.33
71128;SHT30;59249;59.736;30.568;2023-02-05T03:02:34;-3.16;77.43
71128;SHT30;59249;59.736;30.568;2023-02-05T03:05:10;-3.25;77.58
71128;SHT30;59249;59.736;30.568;2023-02-05T03:07:44;-3.05;77.54
71128;SHT30;59249;59.736;30.568;2023-02-05T03:10:22;-3.03;77.35
71128;SHT30;59249;59.736;30.568;2023-02-05T03:12:53;-3.00;77.48
71128;SHT30;59249;59.736;30.568;2023-02-05T03:15:23;-3.10;77.08
71128;SHT30;59249;59.736;30.568;2023-02-05T03:17:54;-3.08;77.57
71128;SHT30;59249;59.736;30.568;2023-02-05T03:20:27;-3.01;77.42
71128;SHT30;59249;59.736;30.568;2023-02-05T03:22:56;-3.20;77.33
71128;SHT30;59249;59.736;30.568;2023-02-05T03:25:28;-3.15;77.17
71128;SHT30;59249;59.736;30.568;2023-02-05T03:27:58;-3.17;77.00
71128;SHT30;59249;59.736;30.568;2023-02-05T03:30:42;-3.31;77.10
71128;SHT30;59249;59.736;30.568;2023-02-05T03:33:38;-3.31;77.31
71128;SHT30;59249;59.736;30.568;2023-02-05T03:36:23;-3.47;77.35
71128;SHT30;59249;59.736;30.568;2023-02-05T03:39:18;-3.40;77.35
71128;SHT30;59249;59.736;30.568;2023-02-05T03:42:01;-3.51;77.89
71128;SHT30;59249;59.736;30.568;2023-02-05T03:44:59;-3.48;77.86
71128;SHT30;59249;59.736;30.568;2023-02-05T03:47:59;-3.56;77.75
71128;SHT30;59249;59.736;30.568;2023-02-05T03:50:37;-3.72;77.66
71128;SHT30;59249;59.736;30.568;2023-02-05T03:53:18;-3.67;77.90
71128;SHT30;59249;59.736;30.568;2023-02-05T03:55:56;-3.52;77.54
71128;SHT30;59249;59.736;30.568;2023-02-05T03:58:33;-3.41;76.90
71128;SHT30;59249;59.736;30.568;2023-02-05T04:01:08;-3.64;77.09
71128;SHT30;59249;59.736;30.568;2023-02-05T04:03:40;-3.60;77.59
71128;SHT30;59249;59.736;30.568;2023-02-05T04:06:11;-3.56;77.59
71128;SHT30;59249;59.736;30.568;2023-02-05T04:08:39;-3.52;77.56
71128;SHT30;59249;59.736;30.568;2023-02-05T04:11:11;-3.49;77.29
71128;SHT30;59249;59.736;30.568;2023-02-05T04:13:42;-3.58;77.41
71128;SHT30;59249;59.736;30.568;2023-02-05T04:16:11;-3.46;77.50
71128;SHT30;59249;59.736;30.568;2023-02-05T04:18:41;-3.40;77.34
71128;SHT30;59249;59.736;30.568;2023-02-05T04:21:10;-3.51;77.66
71128;SHT30;59249;59.736;30.568;2023-02-05T04:23:41;-3.49;77.64
71128;SHT30;59249;59.736;30.568;2023-02-05T04:26:11;-3.51;77.88
71128;SHT30;59249;59.736;30.568;2023-02-05T04:28:46;-3.52;78.11
71128;SHT30;59249;59.736;30.568;2023-02-05T04:31:15;-3.62;78.81
71128;SHT30;59249;59.736;30.568;2023-02-05T04:33:45;-3.71;79.22
71128;SHT30;59249;59.736;30.568;2023-02-05T04:36:16;-3.78;79.57
71128;SHT30;59249;59.736;30.568;2023-02-05T04:38:45;-3.81;79.90
71128;SHT30;59249;59.736;30.568;2023-02-05T04:41:14;-3.84;79.99
71128;SHT30;59249;59.736;30.568;2023-02-05T04:43:42;-3.95;80.17
71128;SHT30;59249;59.736;30.568;2023-02-05T04:46:11;-4.04;80.37
71128;SHT30;59249;59.736;30.568;2023-02-05T04:48:40;-4.06;80.35
71128;SHT30;59249;59.736;30.568;2023-02-05T04:51:12;-4.18;80.36
71128;SHT30;59249;59.736;30.568;2023-02-05T04:53:41;-4.14;80.64
71128;SHT30;59249;59.736;30.568;2023-02-05T04:56:13;-4.15;80.56
71128;SHT30;59249;59.736;30.568;2023-02-05T04:58:44;-4.27;80.73
71128;SHT30;59249;59.736;30.568;2023-02-05T05:01:19;-4.41;80.92
71128;SHT30;59249;59.736;30.568;2023-02-05T05:03:48;-4.40;80.94
71128;SHT30;59249;59.736;30.568;2023-02-05T05:06:19;-4.48;81.09
71128;SHT30;59249;59.736;30.568;2023-02-05T05:08:50;-4.41;80.93
71128;SHT30;59249;59.736;30.568;2023-02-05T05:11:19;-4.55;81.27
71128;SHT30;59249;59.736;30.568;2023-02-05T05:13:47;-4.50;81.25
71128;SHT30;59249;59.736;30.568;2023-02-05T05:16:18;-4.54;81.35
71128;SHT30;59249;59.736;30.568;2023-02-05T05:18:50;-4.60;81.30
71128;SHT30;59249;59.736;30.568;2023-02-05T05:21:20;-4.65;81.51
71128;SHT30;59249;59.736;30.568;2023-02-05T05:23:49;-4.59;81.43
71128;SHT30;59249;59.736;30.568;2023-02-05T05:26:17;-4.65;81.38
71128;SHT30;59249;59.736;30.568;2023-02-05T05:28:46;-4.56;81.61
71128;SHT30;59249;59.736;30.568;2023-02-05T05:31:16;-4.67;81.50
71128;SHT30;59249;59.736;30.568;2023-02-05T05:33:46;-4.56;81.41
71128;SHT30;59249;59.736;30.568;2023-02-05T05:36:16;-4.55;81.37
71128;SHT30;59249;59.736;30.568;2023-02-05T05:38:47;-4.61;81.34
71128;SHT30;59249;59.736;30.568;2023-02-05T05:41:21;-4.56;81.35
71128;SHT30;59249;59.736;30.568;2023-02-05T05:44:08;-4.80;81.29
71128;SHT30;59249;59.736;30.568;2023-02-05T05:46:37;-4.67;81.47
71128;SHT30;59249;59.736;30.568;2023-02-05T05:49:05;-4.70;81.43
71128;SHT30;59249;59.736;30.568;2023-02-05T05:51:34;-4.66;81.36
71128;SHT30;59249;59.736;30.568;2023-02-05T05:54:04;-4.77;81.74
71128;SHT30;59249;59.736;30.568;2023-02-05T05:56:33;-4.75;81.48
71128;SHT30;59249;59.736;30.568;2023-02-05T05:59:02;-4.72;81.50
71128;SHT30;59249;59.736;30.568;2023-02-05T06:01:31;-4.75;81.36
71128;SHT30;59249;59.736;30.568;2023-02-05T06:03:59;-4.85;81.43
71128;SHT30;59249;59.736;30.568;2023-02-05T06:06:31;-4.84;81.48
71128;SHT30;59249;59.736;30.568;2023-02-05T06:09:00;-4.87;81.53
71128;SHT30;59249;59.736;30.568;2023-02-05T06:11:30;-4.85;81.41
71128;SHT30;59249;59.736;30.568;2023-02-05T06:13:59;-4.83;81.35
71128;SHT30;59249;59.736;30.568;2023-02-05T06:16:28;-4.86;81.20
71128;SHT30;59249;59.736;30.568;2023-02-05T06:18:57;-4.92;81.38
71128;SHT30;59249;59.736;30.568;2023-02-05T06:21:25;-4.96;81.38
71128;SHT30;59249;59.736;30.568;2023-02-05T06:23:54;-4.98;81.41
71128;SHT30;59249;59.736;30.568;2023-02-05T06:26:23;-4.95;81.33
71128;SHT30;59249;59.736;30.568;2023-02-05T06:28:54;-4.88;81.18
71128;SHT30;59249;59.736;30.568;2023-02-05T06:31:23;-4.95;81.20
71128;SHT30;59249;59.736;30.568;2023-02-05T06:33:52;-4.92;81.13
71128;SHT30;59249;59.736;30.568;2023-02-05T06:36:21;-4.88;81.02
71128;SHT30;59249;59.736;30.568;2023-02-05T06:38:50;-4.95;81.08
71128;SHT30;59249;59.736;30.568;2023-02-05T06:41:18;-4.93;80.84
71128;SHT30;59249;59.736;30.568;2023-02-05T06:43:47;-4.96;80.92
71128;SHT30;59249;59.736;30.568;2023-02-05T06:46:17;-4.91;80.84
71128;SHT30;59249;59.736;30.568;2023-02-05T06:48:46;-5.07;80.95
71128;SHT30;59249;59.736;30.568;2023-02-05T06:51:14;-5.06;81.14
71128;SHT30;59249;59.736;30.568;2023-02-05T06:53:44;-5.01;81.00
71128;SHT30;59249;59.736;30.568;2023-02-05T06:56:13;-4.98;80.99
71128;SHT30;59249;59.736;30.568;2023-02-05T06:58:44;-4.88;80.85
71128;SHT30;59249;59.736;30.568;2023-02-05T07:01:13;-4.88;80.63
71128;SHT30;59249;59.736;30.568;2023-02-05T07:03:59;-4.91;80.52
71128;SHT30;59249;59.736;30.568;2023-02-05T07:06:28;-4.97;80.48
71128;SHT30;59249;59.736;30.568;2023-02-05T07:08:57;-4.96;80.45
71128;SHT30;59249;59.736;30.568;2023-02-05T07:11:25;-4.97;80.40
71128;SHT30;59249;59.736;30.568;2023-02-05T07:13:55;-5.00;80.40
71128;SHT30;59249;59.736;30.568;2023-02-05T07:16:24;-5.06;80.36
71128;SHT30;59249;59.736;30.568;2023-02-05T07:18:53;-5.02;80.36
71128;SHT30;59249;59.736;30.568;2023-02-05T07:21:23;-4.99;80.28
71128;SHT30;59249;59.736;30.568;2023-02-05T07:23:52;-4.91;80.12
71128;SHT30;59249;59.736;30.568;2023-02-05T07:26:21;-4.90;79.93
71128;SHT30;59249;59.736;30.568;2023-02-05T07:28:50;-4.73;79.98
71128;SHT30;59249;59.736;30.568;2023-02-05T07:31:19;-4.67;79.94
71128;SHT30;59249;59.736;30.568;2023-02-05T07:33:48;-4.62;79.66
71128;SHT30;59249;59.736;30.568;2023-02-05T07:36:17;-4.54;79.55
71128;SHT30;59249;59.736;30.568;2023-02-05T07:38:47;-4.47;79.50
71128;SHT30;59249;59.736;30.568;2023-02-05T07:41:16;-4.36;79.47
71128;SHT30;59249;59.736;30.568;2023-02-05T07:43:45;-4.28;79.44
71128;SHT30;59249;59.736;30.568;2023-02-05T07:46:19;-4.36;79.49
71128;SHT30;59249;59.736;30.568;2023-02-05T07:48:48;-4.41;79.66
71128;SHT30;59249;59.736;30.568;2023-02-05T07:51:21;-4.40;79.61
71128;SHT30;59249;59.736;30.568;2023-02-05T07:53:52;-4.33;79.75
71128;SHT30;59249;59.736;30.568;2023-02-05T07:56:20;-4.39;79.33
71128;SHT30;59249;59.736;30.568;2023-02-05T07:58:54;-4.41;79.64
71128;SHT30;59249;59.736;30.568;2023-02-05T08:01:23;-4.39;79.38
71128;SHT30;59249;59.736;30.568;2023-02-05T08:03:52;-4.37;79.28
71128;SHT30;59249;59.736;30.568;2023-02-05T08:06:21;-4.35;79.28
71128;SHT30;59249;59.736;30.568;2023-02-05T08:08:51;-4.51;79.33
71128;SHT30;59249;59.736;30.568;2023-02-05T08:11:19;-4.56;79.36
71128;SHT30;59249;59.736;30.568;2023-02-05T08:13:48;-4.47;79.47
71128;SHT30;59249;59.736;30.568;2023-02-05T08:16:17;-4.33;79.22
71128;SHT30;59249;59.736;30.568;2023-02-05T08:18:49;-4.40;78.85
71128;SHT30;59249;59.736;30.568;2023-02-05T08:21:18;-4.27;78.93
71128;SHT30;59249;59.736;30.568;2023-02-05T08:23:48;-4.13;78.89
71128;SHT30;59249;59.736;30.568;2023-02-05T08:26:18;-4.03;78.53
71128;SHT30;59249;59.736;30.568;2023-02-05T08:28:47;-4.04;78.25
71128;SHT30;59249;59.736;30.568;2023-02-05T08:31:18;-4.12;78.23
71128;SHT30;59249;59.736;30.568;2023-02-05T08:33:46;-4.11;78.39
71128;SHT30;59249;59.736;30.568;2023-02-05T08:36:17;-4.09;78.41
71128;SHT30;59249;59.736;30.568;2023-02-05T08:38:46;-4.11;78.16
71128;SHT30;59249;59.736;30.568;2023-02-05T08:41:15;-4.03;77.94
71128;SHT30;59249;59.736;30.568;2023-02-05T08:43:47;-4.02;77.71
71128;SHT30;59249;59.736;30.568;2023-02-05T08:46:21;-3.93;77.51
71128;SHT30;59249;59.736;30.568;2023-02-05T08:48:51;-3.91;77.29
71128;SHT30;59249;59.736;30.568;2023-02-05T08:51:21;-3.82;77.33
71128;SHT30;59249;59.736;30.568;2023-02-05T08:53:51;-3.79;76.97
71128;SHT30;59249;59.736;30.568;2023-02-05T08:56:22;-3.91;76.85
71128;SHT30;59249;59.736;30.568;2023-02-05T08:58:53;-4.04;76.94
71128;SHT30;59249;59.736;30.568;2023-02-05T09:01:22;-4.11;77.11
71128;SHT30;59249;59.736;30.568;2023-02-05T09:03:50;-4.09;77.25
71128;SHT30;59249;59.736;30.568;2023-02-05T09:06:19;-4.16;77.03
71128;SHT30;59249;59.736;30.568;2023-02-05T09:08:48;-4.18;77.21
71128;SHT30;59249;59.736;30.568;2023-02-05T09:11:20;-4.27;77.20
71128;SHT30;59249;59.736;30.568;2023-02-05T09:13:49;-4.26;77.45
71128;SHT30;59249;59.736;30.568;2023-02-05T09:16:19;-4.33;77.50
71128;SHT30;59249;59.736;30.568;2023-02-05T09:18:47;-4.44;77.54
71128;SHT30;59249;59.736;30.568;2023-02-05T09:21:16;-4.49;77.82
71128;SHT30;59249;59.736;30.568;2023-02-05T09:23:45;-4.46;78.32
71128;SHT30;59249;59.736;30.568;2023-02-05T09:26:13;-4.33;78.21
71128;SHT30;59249;59.736;30.568;2023-02-05T09:28:42;-4.26;77.89
71128;SHT30;59249;59.736;30.568;2023-02-05T09:31:15;-4.37;77.72
71128;SHT30;59249;59.736;30.568;2023-02-05T09:33:45;-4.39;77.98
71128;SHT30;59249;59.736;30.568;2023-02-05T09:36:17;-4.40;78.04
71128;SHT30;59249;59.736;30.568;2023-02-05T09:38:48;-4.34;77.94
71128;SHT30;59249;59.736;30.568;2023-02-05T09:41:39;-4.27;77.91
71128;SHT30;59249;59.736;30.568;2023-02-05T09:44:20;-4.14;77.91
71128;SHT30;59249;59.736;30.568;2023-02-05T09:47:03;-3.94;77.59
71128;SHT30;59249;59.736;30.568;2023-02-05T09:49:42;-3.90;77.08
71128;SHT30;59249;59.736;30.568;2023-02-05T09:52:19;-3.84;76.63
71128;SHT30;59249;59.736;30.568;2023-02-05T09:54:54;-3.79;76.47
71128;SHT30;59249;59.736;30.568;2023-02-05T09:57:38;-3.68;76.10
71128;SHT30;59249;59.736;30.568;2023-02-05T10:00:21;-3.60;75.86
71128;SHT30;59249;59.736;30.568;2023-02-05T10:02:59;-3.48;75.87
71128;SHT30;59249;59.736;30.568;2023-02-05T10:05:42;-3.46;75.47
71128;SHT30;59249;59.736;30.568;2023-02-05T10:08:20;-3.30;75.46
71128;SHT30;59249;59.736;30.568;2023-02-05T10:10:56;-3.35;74.94
71128;SHT30;59249;59.736;30.568;2023-02-05T10:13:35;-3.23;75.08
71128;SHT30;59249;59.736;30.568;2023-02-05T10:16:37;-3.25;74.86
71128;SHT30;59249;59.736;30.568;2023-02-05T10:19:32;-3.23;74.50
71128;SHT30;59249;59.736;30.568;2023-02-05T10:22:16;-3.32;74.32
71128;SHT30;59249;59.736;30.568;2023-02-05T10:25:23;-3.30;74.40
71128;SHT30;59249;59.736;30.568;2023-02-05T10:28:08;-3.36;74.18
71128;SHT30;59249;59.736;30.568;2023-02-05T10:30:50;-3.40;74.09
71128;SHT30;59249;59.736;30.568;2023-02-05T10:33:40;-3.42;73.92
71128;SHT30;59249;59.736;30.568;2023-02-05T10:36:14;-3.34;73.72
71128;SHT30;59249;59.736;30.568;2023-02-05T10:38:52;-3.34;73.48
71128;SHT30;59249;59.736;30.568;2023-02-05T10:41:29;-3.34;73.45
71128;SHT30;59249;59.736;30.568;2023-02-05T10:44:11;-3.27;73.45
71128;SHT30;59249;59.736;30.568;2023-02-05T10:46:44;-3.49;73.06
71128;SHT30;59249;59.736;30.568;2023-02-05T10:49:23;-3.62;73.30
71128;SHT30;59249;59.736;30.568;2023-02-05T10:51:52;-3.66;73.46
71128;SHT30;59249;59.736;30.568;2023-02-05T10:54:29;-3.58;73.86
71128;SHT30;59249;59.736;30.568;2023-02-05T10:57:00;-3.48;73.36
71128;SHT30;59249;59.736;30.568;2023-02-05T10:59:34;-3.48;73.29
71128;SHT30;59249;59.736;30.568;2023-02-05T11:02:07;-3.45;73.36
71128;SHT30;59249;59.736;30.568;2023-02-05T11:04:45;-3.42;73.16
71128;SHT30;59249;59.736;30.568;2023-02-05T11:07:26;-3.37;73.00
71128;SHT30;59249;59.736;30.568;2023-02-05T11:10:13;-3.23;72.86
71128;SHT30;59249;59.736;30.568;2023-02-05T11:12:49;-3.24;72.60
71128;SHT30;59249;59.736;30.568;2023-02-05T11:15:25;-3.18;72.54
71128;SHT30;59249;59.736;30.568;2023-02-05T11:17:59;-3.22;72.56
71128;SHT30;59249;59.736;30.568;2023-02-05T11:20:33;-3.11;72.64
71128;SHT30;59249;59.736;30.568;2023-02-05T11:23:15;-2.93;72.55
71128;SHT30;59249;59.736;30.568;2023-02-05T11:25:54;-3.06;72.06
71128;SHT30;59249;59.736;30.568;2023-02-05T11:28:28;-2.99;72.29
71128;SHT30;59249;59.736;30.568;2023-02-05T11:31:19;-3.01;72.44
71128;SHT30;59249;59.736;30.568;2023-02-05T11:33:52;-3.06;72.35
71128;SHT30;59249;59.736;30.568;2023-02-05T11:36:45;-2.95;72.64
71128;SHT30;59249;59.736;30.568;2023-02-05T11:39:29;-2.90;72.69
71128;SHT30;59249;59.736;30.568;2023-02-05T11:42:09;-2.84;72.47
71128;SHT30;59249;59.736;30.568;2023-02-05T11:44:49;-2.86;72.25
71128;SHT30;59249;59.736;30.568;2023-02-05T11:47:38;-2.83;72.43
71128;SHT30;59249;59.736;30.568;2023-02-05T11:50:23;-2.68;72.30
71128;SHT30;59249;59.736;30.568;2023-02-05T11:52:54;-2.69;72.06
71128;SHT30;59249;59.736;30.568;2023-02-05T11:55:27;-2.71;71.85
71128;SHT30;59249;59.736;30.568;2023-02-05T11:58:04;-2.81;72.18
71128;SHT30;59249;59.736;30.568;2023-02-05T12:00:33;-2.82;72.38
71128;SHT30;59249;59.736;30.568;2023-02-05T12:03:06;-2.94;72.20
71128;SHT30;59249;59.736;30.568;2023-02-05T12:05:50;-2.90;72.32
71128;SHT30;59249;59.736;30.568;2023-02-05T12:08:35;-2.87;72.37
71128;SHT30;59249;59.736;30.568;2023-02-05T12:11:31;-2.90;71.90
71128;SHT30;59249;59.736;30.568;2023-02-05T12:14:35;-2.96;72.08
71128;SHT30;59249;59.736;30.568;2023-02-05T12:17:23;-2.99;71.90
71128;SHT30;59249;59.736;30.568;2023-02-05T12:20:00;-3.01;71.93
71128;SHT30;59249;59.736;30.568;2023-02-05T12:22:55;-2.94;71.73
71128;SHT30;59249;59.736;30.568;2023-02-05T12:25:38;-3.01;71.54
71128;SHT30;59249;59.736;30.568;2023-02-05T12:28:29;-3.04;71.61
71128;SHT30;59249;59.736;30.568;2023-02-05T12:31:17;-3.23;71.21
71128;SHT30;59249;59.736;30.568;2023-02-05T12:34:18;-3.44;71.46
71128;SHT30;59249;59.736;30.568;2023-02-05T12:37:21;-3.46;71.85
71128;SHT30;59249;59.736;30.568;2023-02-05T12:40:19;-3.35;72.21
71128;SHT30;59249;59.736;30.568;2023-02-05T12:43:02;-3.34;71.97
71128;SHT30;59249;59.736;30.568;2023-02-05T12:45:46;-3.31;71.89
71128;SHT30;59249;59.736;30.568;2023-02-05T12:48:40;-3.40;71.73
71128;SHT30;59249;59.736;30.568;2023-02-05T12:51:27;-3.37;71.84
71128;SHT30;59249;59.736;30.568;2023-02-05T12:54:22;-3.43;71.86
71128;SHT30;59249;59.736;30.568;2023-02-05T12:57:00;-3.47;71.85
71128;SHT30;59249;59.736;30.568;2023-02-05T12:59:42;-3.41;71.92
71128;SHT30;59249;59.736;30.568;2023-02-05T13:02:23;-3.52;71.75
71128;SHT30;59249;59.736;30.568;2023-02-05T13:05:07;-3.58;71.77
71128;SHT30;59249;59.736;30.568;2023-02-05T13:07:43;-3.61;71.74
71128;SHT30;59249;59.736;30.568;2023-02-05T13:10:19;-3.68;71.98
71128;SHT30;59249;59.736;30.568;2023-02-05T13:12:52;-3.75;72.07
71128;SHT30;59249;59.736;30.568;2023-02-05T13:15:26;-3.80;72.24
71128;SHT30;59249;59.736;30.568;2023-02-05T13:18:03;-3.86;72.38
71128;SHT30;59249;59.736;30.568;2023-02-05T13:20:38;-3.89;72.48
71128;SHT30;59249;59.736;30.568;2023-02-05T13:23:27;-3.91;72.64
71128;SHT30;59249;59.736;30.568;2023-02-05T13:26:16;-3.95;72.81
71128;SHT30;59249;59.736;30.568;2023-02-05T13:29:08;-4.02;72.94
71128;SHT30;59249;59.736;30.568;2023-02-05T13:31:41;-4.03;73.12
71128;SHT30;59249;59.736;30.568;2023-02-05T13:34:16;-4.06;73.25
71128;SHT30;59249;59.736;30.568;2023-02-05T13:44:08;-4.16;74.17
71128;SHT30;59249;59.736;30.568;2023-02-05T13:53:46;-4.44;75.10
71128;SHT30;59249;59.736;30.568;2023-02-05T13:56:53;-4.50;75.31
71128;SHT30;59249;59.736;30.568;2023-02-05T13:59:33;-4.59;75.88
71128;SHT30;59249;59.736;30.568;2023-02-05T14:02:03;-4.72;75.89
71128;SHT30;59249;59.736;30.568;2023-02-05T14:04:47;-4.74;76.12
71128;SHT30;59249;59.736;30.568;2023-02-05T14:07:25;-4.83;76.44
71128;SHT30;59249;59.736;30.568;2023-02-05T14:09:58;-4.86;76.49
71128;SHT30;59249;59.736;30.568;2023-02-05T14:12:33;-4.97;76.56
71128;SHT30;59249;59.736;30.568;2023-02-05T14:15:34;-4.99;76.89
71128;SHT30;59249;59.736;30.568;2023-02-05T14:18:05;-5.12;77.06
71128;SHT30;59249;59.736;30.568;2023-02-05T14:20:37;-5.09;77.13
71128;SHT30;59249;59.736;30.568;2023-02-05T14:26:49;-5.17;77.63
71128;SHT30;59249;59.736;30.568;2023-02-05T14:29:43;-5.16;77.88
71128;SHT30;59249;59.736;30.568;2023-02-05T14:32:55;-5.18;78.10
71128;SHT30;59249;59.736;30.568;2023-02-05T14:35:30;-5.24;78.49
71128;SHT30;59249;59.736;30.568;2023-02-05T14:38:01;-5.23;78.55
71128;SHT30;59249;59.736;30.568;2023-02-05T14:40:32;-5.31;78.87
71128;SHT30;59249;59.736;30.568;2023-02-05T14:43:16;-5.31;79.04
71128;SHT30;59249;59.736;30.568;2023-02-05T14:45:47;-5.28;79.00
71128;SHT30;59249;59.736;30.568;2023-02-05T14:48:23;-5.29;79.06
71128;SHT30;59249;59.736;30.568;2023-02-05T14:51:07;-5.27;79.12
71128;SHT30;59249;59.736;30.568;2023-02-05T14:53:37;-5.26;79.25
71128;SHT30;59249;59.736;30.568;2023-02-05T14:56:06;-5.20;79.28
71128;SHT30;59249;59.736;30.568;2023-02-05T14:58:37;-5.17;79.20
71128;SHT30;59249;59.736;30.568;2023-02-05T15:01:39;-5.17;79.26
71128;SHT30;59249;59.736;30.568;2023-02-05T15:07:22;-5.16;79.22
71128;SHT30;59249;59.736;30.568;2023-02-05T15:09:59;-5.14;79.00
71128;SHT30;59249;59.736;30.568;2023-02-05T15:12:53;-5.20;78.99
71128;SHT30;59249;59.736;30.568;2023-02-05T15:15:31;-5.20;78.92
71128;SHT30;59249;59.736;30.568;2023-02-05T15:18:09;-5.26;78.94
71128;SHT30;59249;59.736;30.568;2023-02-05T15:20:45;-5.23;79.00
71128;SHT30;59249;59.736;30.568;2023-02-05T15:23:33;-5.27;79.19
71128;SHT30;59249;59.736;30.568;2023-02-05T15:26:06;-5.29;79.23
71128;SHT30;59249;59.736;30.568;2023-02-05T15:28:41;-5.34;79.46
71128;SHT30;59249;59.736;30.568;2023-02-05T15:31:30;-5.35;79.52
71128;SHT30;59249;59.736;30.568;2023-02-05T15:34:26;-5.36;79.52
71128;SHT30;59249;59.736;30.568;2023-02-05T15:37:03;-5.41;79.55
71128;SHT30;59249;59.736;30.568;2023-02-05T15:39:49;-5.41;79.47
71128;SHT30;59249;59.736;30.568;2023-02-05T15:42:24;-5.41;79.44
71128;SHT30;59249;59.736;30.568;2023-02-05T15:45:11;-5.44;79.40
71128;SHT30;59249;59.736;30.568;2023-02-05T15:47:58;-5.50;79.55
71128;SHT30;59249;59.736;30.568;2023-02-05T15:50:28;-5.47;79.59
71128;SHT30;59249;59.736;30.568;2023-02-05T15:52:59;-5.49;79.44
71128;SHT30;59249;59.736;30.568;2023-02-05T15:55:30;-5.44;79.44
71128;SHT30;59249;59.736;30.568;2023-02-05T15:58:06;-5.46;79.52
71128;SHT30;59249;59.736;30.568;2023-02-05T16:00:39;-5.45;79.55
71128;SHT30;59249;59.736;30.568;2023-02-05T16:03:24;-5.42;79.43
71128;SHT30;59249;59.736;30.568;2023-02-05T16:05:53;-5.42;79.31
71128;SHT30;59249;59.736;30.568;2023-02-05T16:08:22;-5.39;79.38
71128;SHT30;59249;59.736;30.568;2023-02-05T16:10:56;-5.50;79.35
71128;SHT30;59249;59.736;30.568;2023-02-05T16:13:28;-5.42;79.38
71128;SHT30;59249;59.736;30.568;2023-02-05T16:16:02;-5.42;79.40
71128;SHT30;59249;59.736;30.568;2023-02-05T16:18:39;-5.42;79.60
71128;SHT30;59249;59.736;30.568;2023-02-05T16:21:22;-5.35;79.27
71128;SHT30;59249;59.736;30.568;2023-02-05T16:23:58;-5.30;79.06
71128;SHT30;59249;59.736;30.568;2023-02-05T16:26:34;-5.25;79.14
71128;SHT30;59249;59.736;30.568;2023-02-05T16:29:06;-5.23;78.99